Time;durP1;ratioP1;P1;durP2;ratioP2;P2;SDS_P1;SDS_P2;PMS_P1;PMS_P2;Temp;Humidity;BMP_temperature;BMP_pressure;BME280_temperature;BME280_humidity;BME280_pressure;Samples;Min_cycle;Max_cycle;Signal;HPM_P1;HPM_P2
2022/04/12 00:01:39;;;;;;;2.60;1.00;;;;;;;;;;5118129;28;20727;-75
2022/04/12 00:04:08;;;;;;;6.83;2.33;;;;;;;;;;5118308;28;20197;-75
2022/04/12 00:06:36;;;;;;;3.10;1.20;;;;;;;;;;5118113;28;20224;-75
2022/04/12 00:09:05;;;;;;;2.03;0.83;;;;;;;;;;5113678;28;20201;-75
2022/04/12 00:11:33;;;;;;;3.27;1.03;;;;;;;;;;5118295;28;20208;-75
2022/04/12 00:14:01;;;;;;;3.27;0.93;;;;;;;;;;5118047;28;20215;-75
2022/04/12 00:16:29;;;;;;;2.73;0.80;;;;;;;;;;5118777;28;20714;-75
2022/04/12 00:19:06;;;;;;;1.87;0.90;;;;;;;;;;5118642;28;20208;-75
2022/04/12 00:21:35;;;;;;;2.50;1.17;;;;;;;;;;5118260;28;20193;-76
2022/04/12 00:24:06;;;;;;;1.30;0.90;;;;;;;;;;5118339;28;20235;-76
2022/04/12 00:26:34;;;;;;;1.73;0.80;;;;;;;;;;5117684;28;20246;-75
2022/04/12 00:29:02;;;;;;;4.57;0.73;;;;;;;;;;5117796;28;20204;-75
2022/04/12 00:31:31;;;;;;;1.50;0.80;;;;;;;;;;5117358;28;20211;-76
2022/04/12 00:33:59;;;;;;;2.73;0.80;;;;;;;;;;5118053;28;20307;-75
2022/04/12 00:36:28;;;;;;;3.40;0.77;;;;;;;;;;5117427;28;20692;-76
2022/04/12 00:38:56;;;;;;;3.80;0.93;;;;;;;;;;5117976;28;20208;-76
2022/04/12 00:41:34;;;;;;;1.27;0.73;;;;;;;;;;5117857;28;20196;-76
2022/04/12 00:44:03;;;;;;;2.27;0.70;;;;;;;;;;5117740;28;20678;-76
2022/04/12 00:46:31;;;;;;;1.90;0.90;;;;;;;;;;5117525;28;20231;-76
2022/04/12 00:48:59;;;;;;;1.57;0.77;;;;;;;;;;5117511;28;20203;-76
2022/04/12 00:51:27;;;;;;;1.93;0.90;;;;;;;;;;5117616;28;20586;-76
2022/04/12 00:53:56;;;;;;;2.97;0.90;;;;;;;;;;5117396;28;20292;-76
2022/04/12 00:56:26;;;;;;;4.90;1.07;;;;;;;;;;5117749;28;20222;-76
2022/04/12 00:58:55;;;;;;;3.70;1.20;;;;;;;;;;5118043;28;20201;-76
2022/04/12 01:01:23;;;;;;;1.20;0.77;;;;;;;;;;5117189;28;20228;-75
2022/04/12 01:03:51;;;;;;;2.70;0.80;;;;;;;;;;5117699;28;20250;-76
2022/04/12 01:06:19;;;;;;;5.83;1.20;;;;;;;;;;5113865;28;20225;-76
2022/04/12 01:08:47;;;;;;;2.63;0.80;;;;;;;;;;5117599;28;20203;-76
2022/04/12 01:11:15;;;;;;;3.23;1.00;;;;;;;;;;5116919;28;20201;-75
2022/04/12 01:13:45;;;;;;;2.07;1.00;;;;;;;;;;5117376;28;20197;-75
2022/04/12 01:16:12;;;;;;;5.23;1.20;;;;;;;;;;5116883;28;20221;-75
2022/04/12 01:18:41;;;;;;;5.63;1.20;;;;;;;;;;5115139;28;20201;-76
2022/04/12 01:21:09;;;;;;;4.43;1.43;;;;;;;;;;5117133;28;20208;-76
2022/04/12 01:23:41;;;;;;;2.77;1.07;;;;;;;;;;5117326;28;20232;-75
2022/04/12 01:26:11;;;;;;;2.97;1.00;;;;;;;;;;5118333;28;20227;-76
2022/04/12 01:28:39;;;;;;;2.37;0.60;;;;;;;;;;5121722;28;20216;-75
2022/04/12 01:31:07;;;;;;;3.60;0.80;;;;;;;;;;5121428;28;20207;-76
2022/04/12 01:33:36;;;;;;;2.70;1.13;;;;;;;;;;5121262;28;20201;-75
2022/04/12 01:36:04;;;;;;;2.77;1.20;;;;;;;;;;5121060;28;20238;-76
2022/04/12 01:38:32;;;;;;;1.33;1.10;;;;;;;;;;5120803;28;20211;-75
2022/04/12 01:41:00;;;;;;;3.00;1.00;;;;;;;;;;5121505;28;20205;-76
2022/04/12 01:43:29;;;;;;;2.17;1.07;;;;;;;;;;5121032;27;20203;-75
2022/04/12 01:45:57;;;;;;;2.27;0.90;;;;;;;;;;5120751;28;20223;-75
2022/04/12 01:48:25;;;;;;;3.00;1.07;;;;;;;;;;5120628;28;20592;-75
2022/04/12 01:50:53;;;;;;;3.83;1.00;;;;;;;;;;5120865;28;20201;-75
2022/04/12 01:53:22;;;;;;;3.83;1.07;;;;;;;;;;5120722;28;20292;-76
2022/04/12 01:55:49;;;;;;;2.17;1.07;;;;;;;;;;5121102;28;20293;-75
2022/04/12 01:58:17;;;;;;;5.40;1.17;;;;;;;;;;5121211;28;20207;-75
2022/04/12 02:00:47;;;;;;;5.83;1.27;;;;;;;;;;5120686;28;20201;-75
2022/04/12 02:03:15;;;;;;;3.33;0.70;;;;;;;;;;5120518;28;20763;-75
2022/04/12 02:05:43;;;;;;;2.67;0.90;;;;;;;;;;5120547;28;20691;-76
2022/04/12 02:08:11;;;;;;;1.50;1.40;;;;;;;;;;5119281;28;20220;-76
2022/04/12 02:10:39;;;;;;;2.43;1.20;;;;;;;;;;5115743;28;20207;-75
2022/04/12 02:13:07;;;;;;;1.10;1.00;;;;;;;;;;5121447;28;20201;-76
2022/04/12 02:15:35;;;;;;;2.63;0.97;;;;;;;;;;5119817;28;20252;-75
2022/04/12 02:18:05;;;;;;;2.30;0.80;;;;;;;;;;5120582;28;20283;-76
2022/04/12 02:20:33;;;;;;;3.00;0.77;;;;;;;;;;5120711;28;20199;-76
2022/04/12 02:23:01;;;;;;;1.60;0.80;;;;;;;;;;5116432;28;20200;-76
2022/04/12 02:25:29;;;;;;;3.27;1.00;;;;;;;;;;5120664;28;20212;-76
2022/04/12 02:27:57;;;;;;;3.03;0.80;;;;;;;;;;5119733;28;20717;-76
2022/04/12 02:30:25;;;;;;;1.90;0.90;;;;;;;;;;5120396;27;20203;-76
2022/04/12 02:32:53;;;;;;;4.43;1.00;;;;;;;;;;5119937;28;20217;-76
2022/04/12 02:35:22;;;;;;;2.00;0.90;;;;;;;;;;5120173;28;20223;-76
2022/04/12 02:37:50;;;;;;;2.43;1.20;;;;;;;;;;5119509;28;20211;-76
2022/04/12 02:40:18;;;;;;;1.53;0.93;;;;;;;;;;5120473;28;20197;-76
2022/04/12 02:42:46;;;;;;;3.57;0.70;;;;;;;;;;5119853;28;20199;-76
2022/04/12 02:45:14;;;;;;;4.00;1.03;;;;;;;;;;5112002;28;20203;-76
2022/04/12 02:47:42;;;;;;;1.77;0.87;;;;;;;;;;5120055;28;20217;-76
2022/04/12 02:50:10;;;;;;;1.47;0.90;;;;;;;;;;5120448;28;20285;-76
2022/04/12 02:52:40;;;;;;;2.00;1.00;;;;;;;;;;5120202;28;20197;-76
2022/04/12 02:55:08;;;;;;;1.20;0.73;;;;;;;;;;5119422;28;20204;-76
2022/04/12 02:57:36;;;;;;;2.57;1.00;;;;;;;;;;5119975;28;20199;-76
2022/04/12 03:00:04;;;;;;;3.83;1.20;;;;;;;;;;5119345;28;20690;-76
2022/04/12 03:02:32;;;;;;;1.20;0.70;;;;;;;;;;5119586;27;20239;-76
2022/04/12 03:05:00;;;;;;;2.40;0.83;;;;;;;;;;5119496;28;20232;-76
2022/04/12 03:07:28;;;;;;;2.23;0.80;;;;;;;;;;5119741;28;20204;-76
2022/04/12 03:09:57;;;;;;;2.50;0.90;;;;;;;;;;5119512;28;20203;-75
2022/04/12 03:12:25;;;;;;;1.47;1.00;;;;;;;;;;5119437;28;20201;-76
2022/04/12 03:14:53;;;;;;;1.47;0.80;;;;;;;;;;5119433;28;20203;-76
2022/04/12 03:17:21;;;;;;;2.30;1.20;;;;;;;;;;5118759;28;20243;-75
2022/04/12 03:19:49;;;;;;;2.30;0.80;;;;;;;;;;5119262;28;20199;-76
2022/04/12 03:22:17;;;;;;;2.07;1.07;;;;;;;;;;5119178;28;20240;-76
2022/04/12 03:24:46;;;;;;;2.77;0.80;;;;;;;;;;5119425;28;20201;-75
2022/04/12 03:27:15;;;;;;;1.20;1.10;;;;;;;;;;5118759;28;20280;-76
2022/04/12 03:29:43;;;;;;;3.53;1.00;;;;;;;;;;5119170;28;20227;-76
2022/04/12 03:32:11;;;;;;;4.63;1.10;;;;;;;;;;5118968;28;20215;-76
2022/04/12 03:34:40;;;;;;;1.00;0.77;;;;;;;;;;5119428;28;20200;-76
2022/04/12 03:37:08;;;;;;;2.07;1.27;;;;;;;;;;5119274;28;20224;-76
2022/04/12 03:39:36;;;;;;;3.87;1.13;;;;;;;;;;5119452;28;20204;-75
2022/04/12 03:42:05;;;;;;;3.27;1.03;;;;;;;;;;5119323;28;20209;-75
2022/04/12 03:44:34;;;;;;;2.73;1.23;;;;;;;;;;5110465;28;20208;-76
2022/04/12 03:47:02;;;;;;;1.50;1.10;;;;;;;;;;5104820;28;20234;-76
2022/04/12 03:49:30;;;;;;;1.90;1.20;;;;;;;;;;5114861;28;20241;-76
2022/04/12 03:51:58;;;;;;;0.93;0.80;;;;;;;;;;5118004;28;20201;-75
2022/04/12 03:54:26;;;;;;;1.20;0.90;;;;;;;;;;5117681;28;20212;-75
2022/04/12 03:56:54;;;;;;;3.13;1.10;;;;;;;;;;5118269;28;20221;-75
2022/04/12 03:59:22;;;;;;;1.40;1.00;;;;;;;;;;5118198;28;20203;-75
2022/04/12 04:01:52;;;;;;;1.70;0.90;;;;;;;;;;5118383;28;20288;-75
2022/04/12 04:04:20;;;;;;;2.00;1.10;;;;;;;;;;5118217;28;20209;-76
2022/04/12 04:06:48;;;;;;;4.80;0.80;;;;;;;;;;5118470;28;20227;-75
2022/04/12 04:09:16;;;;;;;3.17;0.80;;;;;;;;;;5108985;28;20228;-75
2022/04/12 04:11:45;;;;;;;2.93;0.70;;;;;;;;;;5111976;28;20200;-76
2022/04/12 04:14:15;;;;;;;1.30;0.73;;;;;;;;;;5108407;28;20228;-76
2022/04/12 04:16:43;;;;;;;2.47;0.93;;;;;;;;;;5109748;28;20217;-76
2022/04/12 04:19:12;;;;;;;0.87;0.67;;;;;;;;;;5109064;28;20196;-76
2022/04/12 04:21:40;;;;;;;2.17;0.90;;;;;;;;;;5106004;28;20197;-76
2022/04/12 04:24:08;;;;;;;3.13;0.70;;;;;;;;;;5111793;28;20207;-75
2022/04/12 04:26:36;;;;;;;2.07;1.30;;;;;;;;;;5107832;28;20221;-76
2022/04/12 04:29:05;;;;;;;19.83;1.63;;;;;;;;;;5101863;28;20688;-76
2022/04/12 04:31:33;;;;;;;1.33;1.20;;;;;;;;;;5105779;28;20283;-76
2022/04/12 04:34:01;;;;;;;3.40;1.20;;;;;;;;;;5104735;28;20300;-76
2022/04/12 04:36:31;;;;;;;4.17;1.20;;;;;;;;;;5102423;28;20220;-75
2022/04/12 04:38:59;;;;;;;1.73;0.90;;;;;;;;;;5107706;28;20193;-76
2022/04/12 04:41:28;;;;;;;2.20;0.90;;;;;;;;;;5106480;28;20201;-76
2022/04/12 04:43:56;;;;;;;2.63;0.90;;;;;;;;;;5105557;28;20497;-75
2022/04/12 04:46:25;;;;;;;2.07;0.93;;;;;;;;;;5105119;28;20247;-75
2022/04/12 04:48:53;;;;;;;1.90;1.10;;;;;;;;;;5106869;28;20277;-76
2022/04/12 04:51:21;;;;;;;2.07;1.33;;;;;;;;;;5106656;28;20563;-75
2022/04/12 04:53:57;;;;;;;3.43;1.13;;;;;;;;;;5106882;28;20196;-75
2022/04/12 04:56:26;;;;;;;1.23;1.00;;;;;;;;;;5104166;28;20668;-75
2022/04/12 04:58:55;;;;;;;2.50;1.00;;;;;;;;;;5105077;28;20198;-76
2022/04/12 05:01:23;;;;;;;1.47;0.90;;;;;;;;;;5103194;28;20229;-76
2022/04/12 05:03:51;;;;;;;3.97;1.23;;;;;;;;;;5109354;28;20259;-76
2022/04/12 05:06:20;;;;;;;0.90;0.90;;;;;;;;;;5110856;28;20228;-76
2022/04/12 05:08:50;;;;;;;1.23;1.13;;;;;;;;;;5108731;28;20335;-76
2022/04/12 05:11:18;;;;;;;2.73;1.13;;;;;;;;;;5105365;28;21810;-76
2022/04/12 05:13:46;;;;;;;3.30;1.13;;;;;;;;;;5109521;28;20208;-76
2022/04/12 05:16:14;;;;;;;3.93;1.30;;;;;;;;;;5105031;28;20217;-76
2022/04/12 05:18:42;;;;;;;2.00;1.07;;;;;;;;;;5108249;28;20197;-76
2022/04/12 05:21:10;;;;;;;2.80;1.20;;;;;;;;;;5109739;28;20675;-76
2022/04/12 05:23:38;;;;;;;2.03;1.00;;;;;;;;;;5106290;28;20284;-76
2022/04/12 05:26:08;;;;;;;2.40;1.30;;;;;;;;;;5106201;28;20232;-76
2022/04/12 05:28:36;;;;;;;4.63;1.37;;;;;;;;;;5104403;28;20724;-76
2022/04/12 05:31:04;;;;;;;2.83;1.00;;;;;;;;;;5104346;28;20661;-75
2022/04/12 05:33:32;;;;;;;5.83;0.70;;;;;;;;;;5108202;28;20284;-72
2022/04/12 05:36:00;;;;;;;1.83;1.07;;;;;;;;;;5111602;28;20576;-72
2022/04/12 05:38:28;;;;;;;2.73;1.20;;;;;;;;;;5117239;28;20284;-70
2022/04/12 05:40:56;;;;;;;1.77;1.10;;;;;;;;;;5115030;28;20197;-77
2022/04/12 05:43:25;;;;;;;3.13;1.13;;;;;;;;;;5106686;28;20203;-77
2022/04/12 05:45:53;;;;;;;4.37;1.20;;;;;;;;;;5108492;28;20217;-75
2022/04/12 05:48:22;;;;;;;1.60;0.90;;;;;;;;;;5106544;28;20268;-75
2022/04/12 05:50:50;;;;;;;2.20;1.17;;;;;;;;;;5111017;28;20231;-75
2022/04/12 05:53:20;;;;;;;2.53;1.00;;;;;;;;;;5108356;28;20210;-76
2022/04/12 05:55:48;;;;;;;2.00;0.93;;;;;;;;;;5117047;28;20748;-76
2022/04/12 05:58:16;;;;;;;2.70;1.20;;;;;;;;;;5117153;28;20205;-77
2022/04/12 06:00:45;;;;;;;1.07;0.90;;;;;;;;;;5117160;28;20276;-76
2022/04/12 06:03:13;;;;;;;4.33;1.00;;;;;;;;;;5116676;28;20239;-76
2022/04/12 06:05:42;;;;;;;1.30;0.80;;;;;;;;;;5117726;28;20217;-76
2022/04/12 06:08:09;;;;;;;3.90;1.87;;;;;;;;;;5117429;28;20215;-76
2022/04/12 06:10:37;;;;;;;3.13;1.00;;;;;;;;;;5118918;28;20221;-76
2022/04/12 06:13:06;;;;;;;2.77;0.93;;;;;;;;;;5120634;28;20205;-76
2022/04/12 06:15:34;;;;;;;2.80;1.10;;;;;;;;;;5120035;28;20223;-76
2022/04/12 06:18:08;;;;;;;1.33;0.80;;;;;;;;;;5115373;28;20260;-76
2022/04/12 06:20:36;;;;;;;0.63;0.57;;;;;;;;;;5113863;28;20192;-76
2022/04/12 06:23:04;;;;;;;2.50;1.00;;;;;;;;;;5114200;28;20201;-77
2022/04/12 06:25:32;;;;;;;1.10;0.80;;;;;;;;;;5119605;28;20217;-77
2022/04/12 06:28:00;;;;;;;2.13;0.80;;;;;;;;;;5115817;28;20201;-77
2022/04/12 06:30:30;;;;;;;1.23;0.97;;;;;;;;;;5118223;28;20225;-76
2022/04/12 06:32:58;;;;;;;1.37;0.70;;;;;;;;;;5119728;28;20244;-77
2022/04/12 06:35:27;;;;;;;5.43;1.03;;;;;;;;;;5117924;28;20217;-77
2022/04/12 06:37:56;;;;;;;1.90;1.27;;;;;;;;;;5119698;28;20208;-76
2022/04/12 06:40:24;;;;;;;3.03;1.00;;;;;;;;;;5119457;28;20197;-77
2022/04/12 06:42:53;;;;;;;2.60;1.00;;;;;;;;;;5119897;28;20201;-78
2022/04/12 06:45:21;;;;;;;1.47;1.10;;;;;;;;;;5118758;28;20256;-75
2022/04/12 06:47:52;;;;;;;2.60;1.03;;;;;;;;;;5117337;28;20213;-76
2022/04/12 06:50:20;;;;;;;1.60;1.03;;;;;;;;;;5119294;28;20217;-73
2022/04/12 06:52:50;;;;;;;2.50;2.03;;;;;;;;;;5111996;28;20292;-75
2022/04/12 06:55:19;;;;;;;5.20;1.37;;;;;;;;;;5115570;28;20255;-74
2022/04/12 06:57:47;;;;;;;2.33;0.80;;;;;;;;;;5119052;27;20235;-74
2022/04/12 07:00:16;;;;;;;1.73;1.13;;;;;;;;;;5120458;27;20193;-75
2022/04/12 07:02:44;;;;;;;1.13;0.80;;;;;;;;;;5115703;27;20304;-75
2022/04/12 07:05:13;;;;;;;2.00;1.23;;;;;;;;;;5110571;27;20254;-75
2022/04/12 07:07:41;;;;;;;1.17;0.80;;;;;;;;;;5116835;28;20639;-75
2022/04/12 07:10:12;;;;;;;2.67;0.90;;;;;;;;;;5113676;28;20227;-76
2022/04/12 07:12:40;;;;;;;2.67;0.90;;;;;;;;;;5114806;27;20207;-75
2022/04/12 07:15:09;;;;;;;2.23;1.37;;;;;;;;;;5117807;27;20197;-76
2022/04/12 07:17:37;;;;;;;2.37;1.53;;;;;;;;;;5115821;27;20725;-78
2022/04/12 07:20:05;;;;;;;1.13;0.80;;;;;;;;;;5122157;27;20231;-79
2022/04/12 07:22:33;;;;;;;2.63;1.10;;;;;;;;;;5118740;27;20193;-78
2022/04/12 07:25:01;;;;;;;2.83;1.40;;;;;;;;;;5117380;28;20224;-77
2022/04/12 07:27:36;;;;;;;3.57;1.43;;;;;;;;;;5123967;27;20289;-76
2022/04/12 07:30:05;;;;;;;2.43;1.10;;;;;;;;;;5114900;28;20222;-76
2022/04/12 07:32:33;;;;;;;2.50;1.10;;;;;;;;;;5120416;27;20674;-78
2022/04/12 07:35:01;;;;;;;2.80;1.00;;;;;;;;;;5120312;27;20307;-77
2022/04/12 07:37:29;;;;;;;5.43;1.10;;;;;;;;;;5117567;27;20291;-77
2022/04/12 07:39:57;;;;;;;2.37;0.87;;;;;;;;;;5122320;27;20636;-78
2022/04/12 07:42:25;;;;;;;4.03;1.00;;;;;;;;;;5123387;27;20227;-77
2022/04/12 07:44:55;;;;;;;3.83;0.90;;;;;;;;;;5126092;27;20199;-77
2022/04/12 07:47:23;;;;;;;1.20;0.80;;;;;;;;;;5119282;27;20227;-77
2022/04/12 07:49:51;;;;;;;1.63;1.20;;;;;;;;;;5118544;27;20280;-77
2022/04/12 07:52:19;;;;;;;2.80;1.00;;;;;;;;;;5119973;27;20652;-78
2022/04/12 07:54:47;;;;;;;2.30;0.90;;;;;;;;;;5123085;27;20203;-77
2022/04/12 07:57:15;;;;;;;1.80;0.90;;;;;;;;;;5116094;27;20232;-76
2022/04/12 07:59:43;;;;;;;4.20;1.80;;;;;;;;;;5110083;27;20231;-76
2022/04/12 08:02:13;;;;;;;2.27;1.00;;;;;;;;;;5116743;28;20225;-76
2022/04/12 08:04:43;;;;;;;0.97;0.80;;;;;;;;;;5125565;27;20199;-77
2022/04/12 08:07:11;;;;;;;2.87;0.80;;;;;;;;;;5116697;27;20303;-76
2022/04/12 08:09:39;;;;;;;2.20;1.00;;;;;;;;;;5124655;27;20200;-78
2022/04/12 08:12:07;;;;;;;2.60;1.40;;;;;;;;;;5117377;28;20213;-77
2022/04/12 08:14:35;;;;;;;0.80;0.60;;;;;;;;;;5119592;27;20283;-76
2022/04/12 08:17:04;;;;;;;1.80;1.27;;;;;;;;;;5120157;27;20216;-77
2022/04/12 08:19:33;;;;;;;3.17;1.07;;;;;;;;;;5117874;27;20240;-76
2022/04/12 08:22:02;;;;;;;1.87;1.00;;;;;;;;;;5120228;27;20201;-76
2022/04/12 08:24:30;;;;;;;2.70;1.00;;;;;;;;;;5116675;28;20224;-78
2022/04/12 08:26:58;;;;;;;2.17;1.13;;;;;;;;;;5118740;27;20707;-78
2022/04/12 08:29:26;;;;;;;3.57;1.20;;;;;;;;;;5117851;27;20242;-77
2022/04/12 08:31:54;;;;;;;1.17;0.63;;;;;;;;;;5122502;27;20255;-75
2022/04/12 08:34:22;;;;;;;1.23;0.97;;;;;;;;;;5124037;27;20283;-75
2022/04/12 08:36:51;;;;;;;6.77;0.90;;;;;;;;;;5122160;27;20307;-76
2022/04/12 08:39:19;;;;;;;2.57;0.83;;;;;;;;;;5116348;28;20197;-76
2022/04/12 08:41:47;;;;;;;1.73;1.60;;;;;;;;;;5117527;27;20276;-76
2022/04/12 08:44:17;;;;;;;3.53;1.20;;;;;;;;;;5117152;27;20283;-76
2022/04/12 08:46:46;;;;;;;0.93;0.80;;;;;;;;;;5122675;27;20220;-76
2022/04/12 08:49:15;;;;;;;1.97;1.17;;;;;;;;;;5123745;27;20205;-75
2022/04/12 08:51:43;;;;;;;4.10;1.13;;;;;;;;;;5117488;28;20299;-76
2022/04/12 08:54:13;;;;;;;3.23;1.00;;;;;;;;;;5124400;27;20211;-74
2022/04/12 08:56:43;;;;;;;2.47;1.30;;;;;;;;;;5115900;28;20231;-74
2022/04/12 08:59:15;;;;;;;3.80;1.50;;;;;;;;;;5116454;28;20196;-75
2022/04/12 09:01:44;;;;;;;3.27;1.03;;;;;;;;;;5116752;28;20231;-73
2022/04/12 09:04:12;;;;;;;1.20;1.10;;;;;;;;;;5117674;28;20201;-73
2022/04/12 09:06:48;;;;;;;3.20;0.93;;;;;;;;;;5117109;28;20216;-74
2022/04/12 09:09:20;;;;;;;1.27;1.17;;;;;;;;;;5117212;28;20200;-74
2022/04/12 09:11:58;;;;;;;2.00;0.73;;;;;;;;;;5122772;28;20220;-74
2022/04/12 09:14:36;;;;;;;1.10;1.00;;;;;;;;;;5118694;28;20746;-75
2022/04/12 09:17:05;;;;;;;2.63;0.60;;;;;;;;;;5112727;28;20257;-74
2022/04/12 09:19:40;;;;;;;3.50;1.10;;;;;;;;;;5116424;28;20284;-74
2022/04/12 09:22:12;;;;;;;2.17;1.00;;;;;;;;;;5122008;28;20195;-74
2022/04/12 09:24:45;;;;;;;3.13;0.80;;;;;;;;;;5120181;28;20205;-75
2022/04/12 09:27:14;;;;;;;5.47;0.80;;;;;;;;;;5116323;28;20304;-75
2022/04/12 09:29:47;;;;;;;1.73;0.70;;;;;;;;;;5118781;28;20196;-75
2022/04/12 09:32:16;;;;;;;1.37;0.90;;;;;;;;;;5116604;28;20255;-74
2022/04/12 09:34:44;;;;;;;2.70;1.10;;;;;;;;;;5116055;28;20602;-74
2022/04/12 09:37:24;;;;;;;1.70;0.70;;;;;;;;;;5116516;28;20225;-74
2022/04/12 09:40:11;;;;;;;1.97;1.00;;;;;;;;;;5116833;28;20204;-74
2022/04/12 09:42:42;;;;;;;5.00;1.23;;;;;;;;;;5121040;28;20646;-74
2022/04/12 09:45:11;;;;;;;4.03;1.00;;;;;;;;;;5117639;28;20203;-74
2022/04/12 09:47:40;;;;;;;4.93;1.30;;;;;;;;;;5121012;27;20196;-74
2022/04/12 09:50:29;;;;;;;5.93;1.20;;;;;;;;;;5116063;28;20265;-73
2022/04/12 09:52:58;;;;;;;1.20;1.10;;;;;;;;;;5120656;27;20220;-73
2022/04/12 09:55:33;;;;;;;2.07;0.90;;;;;;;;;;5121873;27;20219;-73
2022/04/12 09:58:13;;;;;;;2.33;0.90;;;;;;;;;;5121486;27;20283;-73
2022/04/12 10:00:41;;;;;;;3.63;0.87;;;;;;;;;;5122006;27;20196;-73
2022/04/12 10:03:11;;;;;;;1.57;1.20;;;;;;;;;;5121756;27;20225;-73
2022/04/12 10:05:39;;;;;;;2.10;0.63;;;;;;;;;;5118918;28;20217;-73
2022/04/12 10:08:10;;;;;;;1.27;0.87;;;;;;;;;;5123355;27;20201;-74
2022/04/12 10:10:41;;;;;;;0.97;0.90;;;;;;;;;;5119262;27;20275;-76
2022/04/12 10:13:10;;;;;;;2.03;1.20;;;;;;;;;;5123290;27;20688;-73
2022/04/12 10:15:40;;;;;;;1.37;0.80;;;;;;;;;;5125561;27;20248;-73
2022/04/12 10:18:08;;;;;;;2.37;1.03;;;;;;;;;;5118091;28;20222;-73
2022/04/12 10:20:37;;;;;;;2.57;0.70;;;;;;;;;;5119608;28;20255;-73
2022/04/12 10:23:10;;;;;;;4.73;1.10;;;;;;;;;;5120918;27;20201;-73
2022/04/12 10:25:39;;;;;;;2.97;1.30;;;;;;;;;;5119171;27;20221;-73
2022/04/12 10:28:07;;;;;;;1.53;0.83;;;;;;;;;;5118574;28;20265;-73
2022/04/12 10:30:35;;;;;;;4.70;1.20;;;;;;;;;;5120190;27;20207;-75
2022/04/12 10:33:06;;;;;;;0.93;0.90;;;;;;;;;;5118669;28;20216;-75
2022/04/12 10:35:49;;;;;;;0.80;0.80;;;;;;;;;;5117988;27;20217;-75
2022/04/12 10:38:18;;;;;;;5.13;1.07;;;;;;;;;;5118331;28;20256;-72
2022/04/12 10:40:47;;;;;;;1.17;1.00;;;;;;;;;;5121957;27;20197;-75
2022/04/12 10:43:15;;;;;;;2.17;1.10;;;;;;;;;;5119755;27;20197;-76
2022/04/12 10:45:46;;;;;;;1.50;1.30;;;;;;;;;;5119386;27;20221;-74
2022/04/12 10:48:20;;;;;;;4.53;1.20;;;;;;;;;;5117276;27;20974;-73
2022/04/12 10:50:50;;;;;;;1.50;1.10;;;;;;;;;;5115895;27;20197;-76
2022/04/12 10:53:47;;;;;;;1.67;1.37;;;;;;;;;;5115971;28;20229;-76
2022/04/12 10:56:16;;;;;;;2.03;1.53;;;;;;;;;;5114327;28;20304;-76
2022/04/12 10:58:44;;;;;;;1.93;1.00;;;;;;;;;;5122169;27;20556;-76
2022/04/12 11:01:13;;;;;;;3.30;0.60;;;;;;;;;;5119729;27;20197;-79
2022/04/12 11:03:54;;;;;;;3.30;1.10;;;;;;;;;;5117536;27;20194;-75
2022/04/12 11:06:22;;;;;;;1.70;0.90;;;;;;;;;;5124665;27;20299;-75
2022/04/12 11:08:51;;;;;;;3.83;0.80;;;;;;;;;;5115888;28;20215;-77
2022/04/12 11:11:20;;;;;;;2.73;1.30;;;;;;;;;;5120876;27;20205;-75
2022/04/12 11:13:49;;;;;;;4.23;0.97;;;;;;;;;;5120045;27;20250;-74
2022/04/12 11:16:19;;;;;;;1.67;1.10;;;;;;;;;;5118006;27;20270;-75
2022/04/12 11:18:48;;;;;;;1.80;0.83;;;;;;;;;;5121408;27;20656;-80
2022/04/12 11:21:18;;;;;;;0.83;0.83;;;;;;;;;;5119406;27;20759;-77
2022/04/12 11:23:46;;;;;;;2.27;0.80;;;;;;;;;;5119820;27;20193;-78
2022/04/12 11:26:36;;;;;;;6.07;1.20;;;;;;;;;;5123406;27;20231;-75
2022/04/12 11:29:07;;;;;;;1.93;1.57;;;;;;;;;;5119732;27;20208;-77
2022/04/12 11:31:39;;;;;;;1.10;1.00;;;;;;;;;;5118860;27;20287;-79
2022/04/12 11:34:07;;;;;;;1.83;1.30;;;;;;;;;;5112833;28;20710;-77
2022/04/12 11:36:37;;;;;;;3.03;1.20;;;;;;;;;;5121319;27;20221;-78
2022/04/12 11:39:06;;;;;;;4.37;1.03;;;;;;;;;;5119694;27;20543;-77
2022/04/12 11:41:34;;;;;;;2.47;1.07;;;;;;;;;;5122986;27;20201;-78
2022/04/12 11:44:03;;;;;;;1.33;1.23;;;;;;;;;;5118200;28;20205;-78
2022/04/12 11:46:31;;;;;;;4.63;0.90;;;;;;;;;;5123213;27;20221;-79
2022/04/12 11:49:06;;;;;;;1.87;0.93;;;;;;;;;;5118575;28;20197;-79
2022/04/12 11:51:39;;;;;;;3.80;0.97;;;;;;;;;;5122684;27;20336;-79
2022/04/12 11:54:19;;;;;;;2.10;1.20;;;;;;;;;;5110992;28;20213;-78
2022/04/12 11:56:53;;;;;;;5.77;1.23;;;;;;;;;;5114828;27;20223;-77
2022/04/12 11:59:21;;;;;;;1.47;1.17;;;;;;;;;;5125144;27;20249;-77
2022/04/12 12:01:49;;;;;;;4.80;1.17;;;;;;;;;;5116534;28;20229;-77
2022/04/12 12:04:17;;;;;;;1.23;0.70;;;;;;;;;;5119979;27;20255;-76
2022/04/12 12:06:57;;;;;;;2.47;0.93;;;;;;;;;;5116751;27;20228;-76
2022/04/12 12:09:25;;;;;;;3.33;1.17;;;;;;;;;;5118520;27;20502;-75
2022/04/12 12:11:53;;;;;;;1.47;1.10;;;;;;;;;;5117879;27;20560;-78
2022/04/12 12:14:21;;;;;;;6.40;1.00;;;;;;;;;;5121849;27;20220;-78
2022/04/12 12:17:03;;;;;;;0.87;0.70;;;;;;;;;;5114839;27;20787;-71
2022/04/12 12:19:33;;;;;;;1.37;1.07;;;;;;;;;;5118234;27;20260;-74
2022/04/12 12:22:04;;;;;;;2.20;1.17;;;;;;;;;;5117031;27;20223;-69
2022/04/12 12:24:37;;;;;;;2.30;0.77;;;;;;;;;;5122715;27;20199;-72
2022/04/12 12:27:06;;;;;;;2.07;0.90;;;;;;;;;;5115878;27;20216;-77
2022/04/12 12:29:38;;;;;;;1.80;1.07;;;;;;;;;;5121107;27;20196;-74
2022/04/12 12:32:07;;;;;;;0.70;0.70;;;;;;;;;;5121573;27;20200;-77
2022/04/12 12:34:35;;;;;;;3.67;1.00;;;;;;;;;;5119727;27;20766;-77
2022/04/12 12:37:09;;;;;;;1.90;0.90;;;;;;;;;;5113622;28;20235;-78
2022/04/12 12:39:42;;;;;;;4.50;1.00;;;;;;;;;;5124994;27;20195;-77
2022/04/12 12:42:10;;;;;;;1.87;0.97;;;;;;;;;;5119244;27;20232;-77
2022/04/12 12:44:38;;;;;;;2.00;0.80;;;;;;;;;;5123038;27;20276;-77
2022/04/12 12:47:09;;;;;;;5.77;1.10;;;;;;;;;;5124449;27;20227;-77
2022/04/12 12:49:38;;;;;;;1.20;1.10;;;;;;;;;;5112665;28;20196;-77
2022/04/12 12:52:11;;;;;;;1.90;1.23;;;;;;;;;;5114785;28;20284;-77
2022/04/12 12:54:39;;;;;;;2.20;1.00;;;;;;;;;;5120677;28;20216;-77
2022/04/12 12:57:09;;;;;;;4.63;0.90;;;;;;;;;;5115703;28;20227;-77
2022/04/12 12:59:39;;;;;;;0.90;0.90;;;;;;;;;;5124523;27;20214;-75
2022/04/12 13:02:08;;;;;;;0.80;0.80;;;;;;;;;;5124707;27;20228;-77
2022/04/12 13:04:38;;;;;;;1.70;1.10;;;;;;;;;;5109936;28;20225;-77
2022/04/12 13:07:06;;;;;;;3.33;1.03;;;;;;;;;;5122524;28;20227;-71
2022/04/12 13:09:40;;;;;;;2.73;1.30;;;;;;;;;;5121521;28;20197;-70
2022/04/12 13:12:08;;;;;;;1.63;0.83;;;;;;;;;;5125644;28;20197;-71
2022/04/12 13:14:36;;;;;;;1.47;1.10;;;;;;;;;;5120342;28;20254;-70
2022/04/12 13:17:05;;;;;;;1.60;1.20;;;;;;;;;;5116918;28;20231;-70
2022/04/12 13:19:33;;;;;;;1.30;1.17;;;;;;;;;;5117021;28;20292;-76
2022/04/12 13:22:02;;;;;;;2.60;1.00;;;;;;;;;;5121754;27;20210;-79
2022/04/12 13:24:32;;;;;;;6.33;1.00;;;;;;;;;;5120791;28;20656;-77
2022/04/12 13:27:02;;;;;;;5.13;1.03;;;;;;;;;;5124312;27;20241;-78
2022/04/12 13:29:30;;;;;;;5.27;1.10;;;;;;;;;;5119322;28;20204;-78
2022/04/12 13:31:58;;;;;;;2.00;0.90;;;;;;;;;;5126801;27;20202;-79
2022/04/12 13:34:33;;;;;;;6.47;0.80;;;;;;;;;;5122221;27;20567;-77
2022/04/12 13:37:01;;;;;;;2.00;0.70;;;;;;;;;;5126567;27;20226;-77
2022/04/12 13:39:29;;;;;;;3.00;0.80;;;;;;;;;;5126266;27;20203;-78
2022/04/12 13:41:57;;;;;;;1.83;1.00;;;;;;;;;;5121502;27;22082;-79
2022/04/12 13:44:27;;;;;;;3.33;0.90;;;;;;;;;;5124998;27;20223;-78
2022/04/12 13:46:58;;;;;;;1.50;1.23;;;;;;;;;;5122298;27;20220;-79
2022/04/12 13:49:26;;;;;;;1.73;0.63;;;;;;;;;;5121119;27;20208;-78
2022/04/12 13:51:54;;;;;;;1.50;1.00;;;;;;;;;;5123427;27;20678;-78
2022/04/12 13:54:22;;;;;;;0.70;0.70;;;;;;;;;;5120278;27;20212;-78
2022/04/12 13:56:50;;;;;;;8.30;1.73;;;;;;;;;;5126930;27;20228;-78
2022/04/12 13:59:18;;;;;;;6.13;2.17;;;;;;;;;;5124631;27;20201;-78
2022/04/12 14:01:51;;;;;;;2.23;0.97;;;;;;;;;;5121629;27;20281;-78
2022/04/12 14:04:20;;;;;;;2.10;1.17;;;;;;;;;;5124164;27;20196;-78
2022/04/12 14:06:47;;;;;;;1.20;1.07;;;;;;;;;;5120298;28;20220;-77
2022/04/12 14:09:16;;;;;;;1.03;0.93;;;;;;;;;;5119555;27;20201;-78
2022/04/12 14:11:44;;;;;;;6.63;1.00;;;;;;;;;;5123629;27;20710;-78
2022/04/12 14:14:14;;;;;;;1.83;0.97;;;;;;;;;;5120197;27;20212;-78
2022/04/12 14:16:42;;;;;;;2.60;1.37;;;;;;;;;;5122891;27;20216;-78
2022/04/12 14:19:12;;;;;;;2.33;1.20;;;;;;;;;;5116857;28;20197;-77
2022/04/12 14:21:40;;;;;;;3.50;1.33;;;;;;;;;;5125692;27;20209;-78
2022/04/12 14:24:09;;;;;;;1.93;1.13;;;;;;;;;;5119362;28;20626;-77
2022/04/12 14:26:39;;;;;;;5.80;1.23;;;;;;;;;;5119880;28;20220;-78
2022/04/12 14:29:14;;;;;;;0.80;0.80;;;;;;;;;;5121559;27;20212;-78
2022/04/12 14:31:43;;;;;;;2.13;1.27;;;;;;;;;;5121862;27;20725;-78
2022/04/12 14:34:13;;;;;;;3.60;1.20;;;;;;;;;;5118899;28;20692;-78
2022/04/12 14:36:41;;;;;;;1.07;0.80;;;;;;;;;;5121910;27;20228;-78
2022/04/12 14:39:09;;;;;;;2.63;1.30;;;;;;;;;;5119767;27;20258;-78
2022/04/12 14:41:37;;;;;;;2.23;0.97;;;;;;;;;;5120386;27;20686;-78
2022/04/12 14:44:05;;;;;;;1.70;1.03;;;;;;;;;;5119332;28;20197;-77
2022/04/12 14:46:33;;;;;;;1.00;0.90;;;;;;;;;;5116806;27;20268;-78
2022/04/12 14:49:01;;;;;;;3.17;1.20;;;;;;;;;;5118669;28;20602;-78
2022/04/12 14:51:31;;;;;;;1.40;1.00;;;;;;;;;;5123652;27;20978;-78
2022/04/12 14:53:59;;;;;;;1.53;1.07;;;;;;;;;;5126243;27;20304;-77
2022/04/12 14:56:27;;;;;;;1.63;1.20;;;;;;;;;;5124497;27;20216;-78